Time;durP1;ratioP1;P1;durP2;ratioP2;P2;SDS_P1;SDS_P2;PMS_P1;PMS_P2;Temp;Humidity;BMP_temperature;BMP_pressure;BME280_temperature;BME280_humidity;BME280_pressure;Samples;Min_cycle;Max_cycle;Signal;HPM_P1;HPM_P2
2022/12/16 00:00:39;;;;;;;;;;;0.10;99.90;;;;;;8364780;28;19936;-68
2022/12/16 00:04:41;;;;;;;;;;;0.10;99.90;;;;;;8372576;28;19932;-68
2022/12/16 00:08:42;;;;;;;;;;;0.10;99.90;;;;;;8368820;28;19935;-68
2022/12/16 00:12:44;;;;;;;;;;;0.10;99.90;;;;;;8389051;28;19928;-68
2022/12/16 00:16:46;;;;;;;;;;;0.00;99.90;;;;;;8375223;28;20376;-68
2022/12/16 00:20:48;;;;;;;;;;;0.00;99.90;;;;;;8366200;28;19925;-68
2022/12/16 00:24:51;;;;;;;;;;;-0.10;99.90;;;;;;8371056;28;19968;-68
2022/12/16 00:28:52;;;;;;;;;;;-0.10;99.90;;;;;;8373029;28;19974;-68
2022/12/16 00:32:54;;;;;;;;;;;-0.20;99.90;;;;;;8370011;28;19978;-68
2022/12/16 00:36:56;;;;;;;;;;;-0.30;99.90;;;;;;8369636;28;19936;-68
2022/12/16 00:40:57;;;;;;;;;;;-0.30;99.90;;;;;;8372209;28;20384;-69
2022/12/16 00:44:59;;;;;;;;;;;-0.40;99.90;;;;;;8377777;28;20284;-68
2022/12/16 00:49:01;;;;;;;;;;;-0.50;99.90;;;;;;8382881;28;19925;-68
2022/12/16 00:53:03;;;;;;;;;;;-0.60;99.90;;;;;;8380469;28;19940;-68
2022/12/16 00:57:04;;;;;;;;;;;-0.60;99.90;;;;;;8406788;28;20298;-68
2022/12/16 01:01:06;;;;;;;;;;;-0.70;99.90;;;;;;8380403;28;20015;-68
2022/12/16 01:05:08;;;;;;;;;;;-0.70;99.90;;;;;;8378716;28;19925;-68
2022/12/16 01:09:10;;;;;;;;;;;-0.80;99.90;;;;;;8366662;28;19948;-68
2022/12/16 01:13:11;;;;;;;;;;;-0.90;99.90;;;;;;8378765;28;19925;-68
2022/12/16 01:17:13;;;;;;;;;;;-1.00;99.90;;;;;;8352490;28;19925;-68
2022/12/16 01:21:15;;;;;;;;;;;-1.00;99.90;;;;;;8396502;28;19928;-68
2022/12/16 01:25:16;;;;;;;;;;;-1.10;99.90;;;;;;8366299;28;20368;-68
2022/12/16 01:29:18;;;;;;;;;;;-1.10;99.90;;;;;;8364391;28;20283;-68
2022/12/16 01:33:20;;;;;;;;;;;-1.10;99.90;;;;;;8385758;28;19924;-68
2022/12/16 01:37:22;;;;;;;;;;;-1.10;99.90;;;;;;8386460;28;20011;-67
2022/12/16 01:41:24;;;;;;;;;;;-1.10;99.90;;;;;;8359307;28;19925;-68
2022/12/16 01:45:32;;;;;;;;;;;-1.10;99.90;;;;;;8379192;28;20013;-68
2022/12/16 01:49:39;;;;;;;;;;;-1.20;99.90;;;;;;8372215;28;20563;-68
2022/12/16 01:53:41;;;;;;;;;;;-1.20;99.90;;;;;;8390478;28;19925;-68
2022/12/16 01:57:46;;;;;;;;;;;-1.10;99.90;;;;;;8387839;28;19931;-68
2022/12/16 02:01:48;;;;;;;;;;;-1.10;99.90;;;;;;8379368;28;19967;-68
2022/12/16 02:05:50;;;;;;;;;;;-1.10;99.90;;;;;;8390272;28;20023;-68
2022/12/16 02:09:53;;;;;;;;;;;-1.00;99.90;;;;;;8383829;28;19932;-68
2022/12/16 02:14:00;;;;;;;;;;;-1.00;99.90;;;;;;8379327;28;20044;-68
2022/12/16 02:18:27;;;;;;;;;;;-0.90;99.90;;;;;;8377368;28;19924;-68
2022/12/16 02:22:29;;;;;;;;;;;-0.80;99.90;;;;;;8365022;28;19935;-68
2022/12/16 02:26:49;;;;;;;;;;;-0.70;99.90;;;;;;8368602;28;19935;-68
2022/12/16 02:31:07;;;;;;;;;;;-0.70;99.90;;;;;;8386295;28;19990;-68
2022/12/16 02:35:14;;;;;;;;;;;-0.60;99.90;;;;;;8373266;28;19939;-68
2022/12/16 02:39:24;;;;;;;;;;;-0.50;99.90;;;;;;8365108;28;19955;-68
2022/12/16 02:43:26;;;;;;;;;;;-0.50;99.90;;;;;;8386964;28;19964;-68
2022/12/16 02:47:28;;;;;;;;;;;-0.40;99.90;;;;;;8370843;28;19924;-67
2022/12/16 02:51:31;;;;;;;;;;;-0.40;99.90;;;;;;8356704;28;20019;-68
2022/12/16 02:55:53;;;;;;;;;;;-0.40;99.90;;;;;;8391335;28;20015;-68
2022/12/16 03:00:14;;;;;;;;;;;-0.30;99.90;;;;;;8360031;28;19925;-68
2022/12/16 03:04:19;;;;;;;;;;;-0.30;99.90;;;;;;8389022;28;19932;-68
2022/12/16 03:08:24;;;;;;;;;;;-0.20;99.90;;;;;;8371559;28;19964;-68
2022/12/16 03:12:26;;;;;;;;;;;-0.20;99.90;;;;;;8371150;28;19928;-68
2022/12/16 03:16:30;;;;;;;;;;;-0.20;99.90;;;;;;8387683;28;20330;-68
2022/12/16 03:20:34;;;;;;;;;;;-0.10;99.90;;;;;;8370460;28;19931;-68
2022/12/16 03:24:35;;;;;;;;;;;-0.10;99.90;;;;;;8367004;28;19951;-68
2022/12/16 03:28:37;;;;;;;;;;;0.00;99.90;;;;;;8383209;28;19994;-68
2022/12/16 03:32:41;;;;;;;;;;;0.00;99.90;;;;;;8383914;28;20388;-68
2022/12/16 03:36:46;;;;;;;;;;;0.10;99.90;;;;;;8377012;28;19975;-68
2022/12/16 03:40:48;;;;;;;;;;;0.10;99.90;;;;;;8367575;28;20300;-68
2022/12/16 03:44:50;;;;;;;;;;;0.20;99.90;;;;;;8374096;28;20027;-68
2022/12/16 03:48:52;;;;;;;;;;;0.30;99.90;;;;;;8366038;28;19929;-68
2022/12/16 03:52:54;;;;;;;;;;;0.30;99.90;;;;;;8376670;28;20011;-68
2022/12/16 03:56:56;;;;;;;;;;;0.40;99.90;;;;;;8379837;28;20439;-68
2022/12/16 04:00:57;;;;;;;;;;;0.50;99.90;;;;;;8374951;28;20035;-68
2022/12/16 04:04:59;;;;;;;;;;;0.60;99.90;;;;;;8387297;28;20007;-68
2022/12/16 04:09:01;;;;;;;;;;;0.60;99.90;;;;;;8388494;28;20360;-68
2022/12/16 04:26:03;;;;;;;;;;;0.70;99.90;;;;;;8390118;28;20027;-68
2022/12/16 04:30:20;;;;;;;;;;;0.80;99.90;;;;;;8375036;28;19979;-68
2022/12/16 04:34:25;;;;;;;;;;;0.80;99.90;;;;;;8384598;28;19925;-68
